Time;durP1;ratioP1;P1;durP2;ratioP2;P2;SDS_P1;SDS_P2;PMS_P1;PMS_P2;Temp;Humidity;BMP_temperature;BMP_pressure;BME280_temperature;BME280_humidity;BME280_pressure;Samples;Min_cycle;Max_cycle;Signal;HPM_P1;HPM_P2
2023/05/22 00:01:25;;;;;;;20.40;9.00;;;;;;;11.83;83.89;100128.22;5101904;28;20130;-40
2023/05/22 00:03:54;;;;;;;19.30;8.45;;;;;;;12.00;84.00;100147.66;5081174;28;20032;-39
2023/05/22 00:06:21;;;;;;;15.77;8.77;;;;;;;12.12;83.50;100152.47;5070246;28;20408;-41
2023/05/22 00:08:47;;;;;;;18.42;8.52;;;;;;;12.20;83.88;100153.06;5069671;28;20130;-40
2023/05/22 00:11:13;;;;;;;22.92;8.82;;;;;;;12.10;83.22;100129.06;5070077;28;20039;-41
2023/05/22 00:13:39;;;;;;;18.00;8.85;;;;;;;12.19;82.94;100131.38;5087578;28;20036;-40
2023/05/22 00:16:05;;;;;;;19.98;9.40;;;;;;;12.24;83.22;100141.66;5093201;28;20043;-40
2023/05/22 00:18:32;;;;;;;18.08;9.40;;;;;;;12.35;83.13;100149.97;5078016;28;20035;-40
2023/05/22 00:20:58;;;;;;;18.55;9.40;;;;;;;12.46;83.18;100167.81;5072469;28;20172;-41
2023/05/22 00:23:26;;;;;;;26.80;10.00;;;;;;;12.47;83.09;100180.81;5088313;28;20040;-41
2023/05/22 00:25:52;;;;;;;20.48;9.73;;;;;;;12.50;82.93;100180.72;5069659;28;20047;-40
2023/05/22 00:28:18;;;;;;;23.05;9.30;;;;;;;12.53;82.69;100169.31;5068907;28;20036;-39
2023/05/22 00:30:44;;;;;;;19.00;9.77;;;;;;;12.55;82.67;100172.75;5053401;28;20036;-39
2023/05/22 00:33:11;;;;;;;19.00;9.35;;;;;;;12.54;82.66;100171.03;5069778;28;20039;-40
2023/05/22 00:35:37;;;;;;;23.48;10.52;;;;;;;12.52;82.33;100163.25;5087606;28;20141;-41
2023/05/22 00:38:05;;;;;;;22.35;11.75;;;;;;;12.55;82.53;100160.56;5085931;28;20117;-40
2023/05/22 00:40:32;;;;;;;23.45;9.80;;;;;;;12.49;82.39;100147.72;5085944;28;20051;-40
2023/05/22 00:42:58;;;;;;;19.38;9.48;;;;;;;12.59;82.00;100167.34;5053234;28;20044;-40
2023/05/22 00:45:24;;;;;;;24.35;10.45;;;;;;;12.34;82.18;100122.19;5087284;28;20044;-40
2023/05/22 00:47:51;;;;;;;21.73;10.35;;;;;;;12.48;81.67;100160.81;5087024;28;20169;-41
2023/05/22 00:50:18;;;;;;;22.50;10.05;;;;;;;12.40;81.99;100155.00;5069125;28;20044;-41
2023/05/22 00:52:45;;;;;;;19.27;10.55;;;;;;;12.35;82.26;100163.00;5052702;28;20100;-39
2023/05/22 00:55:13;;;;;;;20.52;10.38;;;;;;;12.34;82.01;100166.50;5067012;28;20507;-40
2023/05/22 00:57:40;;;;;;;22.52;9.63;;;;;;;12.15;82.59;100144.53;5085527;28;20040;-40
2023/05/22 01:00:11;;;;;;;24.95;10.80;;;;;;;12.17;82.34;100158.38;5050563;28;20032;-41
2023/05/22 01:02:38;;;;;;;26.00;10.93;;;;;;;12.17;82.40;100168.81;5051606;28;20040;-41
2023/05/22 01:05:05;;;;;;;22.90;10.60;;;;;;;12.10;82.94;100162.09;5033828;28;20121;-40
2023/05/22 01:07:36;;;;;;;23.40;10.88;;;;;;;12.05;83.63;100162.25;5067642;28;20096;-40
2023/05/22 01:10:04;;;;;;;18.75;10.88;;;;;;;12.02;84.13;100164.09;5068614;28;20036;-40
2023/05/22 01:12:54;;;;;;;19.13;10.40;;;;;;;11.83;84.60;100133.41;5053024;28;20510;-39
2023/05/22 01:15:40;;;;;;;21.20;11.07;;;;;;;11.93;84.55;100151.38;5056086;28;20044;-40
2023/05/22 01:18:18;;;;;;;17.60;10.57;;;;;;;11.94;84.54;100151.31;5049600;28;20040;-41
2023/05/22 01:21:10;;;;;;;20.85;11.02;;;;;;;11.93;85.02;100149.63;5047518;28;20476;-40
2023/05/22 01:24:07;;;;;;;23.85;11.35;;;;;;;11.94;85.51;100150.47;5086610;28;20071;-40
2023/05/22 01:26:50;;;;;;;18.23;9.90;;;;;;;11.92;85.28;100141.84;5068861;28;20250;-44
2023/05/22 01:29:47;;;;;;;24.42;11.07;;;;;;;11.89;86.02;100148.00;5067162;28;20540;-39
2023/05/22 01:32:20;;;;;;;23.80;11.10;;;;;;;11.85;85.61;100159.44;5043230;28;20040;-40
2023/05/22 01:34:51;;;;;;;22.63;11.40;;;;;;;11.82;85.92;100151.72;5066763;28;20562;-40
2023/05/22 01:37:20;;;;;;;20.00;10.48;;;;;;;11.82;86.06;100157.78;5080282;28;20048;-40
2023/05/22 01:39:46;;;;;;;22.15;11.32;;;;;;;11.83;86.54;100156.88;5044246;28;20043;-39
2023/05/22 01:42:14;;;;;;;21.95;10.55;;;;;;;11.76;86.79;100146.72;5032604;28;20044;-39
2023/05/22 01:44:40;;;;;;;23.25;10.63;;;;;;;11.73;86.70;100139.81;5067165;28;20480;-39
2023/05/22 01:47:07;;;;;;;19.88;10.88;;;;;;;11.73;86.92;100139.81;5086953;28;20063;-39
2023/05/22 01:49:34;;;;;;;22.80;11.88;;;;;;;11.83;87.00;100156.88;5048378;28;20063;-41
2023/05/22 01:52:11;;;;;;;20.80;11.07;;;;;;;11.85;87.46;100160.28;5049044;28;20063;-39
2023/05/22 01:54:52;;;;;;;27.00;10.85;;;;;;;11.81;87.65;100158.69;5056957;28;20048;-39
2023/05/22 01:57:23;;;;;;;22.95;10.30;;;;;;;11.70;88.14;100139.91;5068729;28;20411;-40
2023/05/22 02:00:11;;;;;;;21.42;9.90;;;;;;;11.81;88.03;100156.06;5054562;28;20130;-41
2023/05/22 02:03:07;;;;;;;21.92;10.60;;;;;;;11.80;88.02;100158.72;5057116;28;20039;-41
2023/05/22 02:05:35;;;;;;;20.50;10.65;;;;;;;11.77;88.47;100162.28;5079065;28;20097;-39
2023/05/22 02:08:02;;;;;;;21.38;10.25;;;;;;;11.74;88.77;100167.59;5071760;28;20054;-40
2023/05/22 02:10:30;;;;;;;28.42;11.32;;;;;;;11.71;89.55;100162.44;5072230;28;20122;-40
2023/05/22 02:12:56;;;;;;;18.95;10.65;;;;;;;11.60;89.53;100141.09;5072856;28;20518;-40
2023/05/22 02:15:23;;;;;;;20.58;10.43;;;;;;;11.69;89.60;100158.16;5071957;28;20036;-40
2023/05/22 02:17:51;;;;;;;22.33;11.43;;;;;;;11.67;90.19;100158.22;5072456;28;20461;-40
2023/05/22 02:20:18;;;;;;;21.30;10.30;;;;;;;11.66;90.23;100159.13;5088998;28;20067;-43
2023/05/22 02:22:45;;;;;;;24.60;10.35;;;;;;;11.65;90.54;100152.22;5090702;28;20423;-40
2023/05/22 02:25:13;;;;;;;21.85;10.80;;;;;;;11.51;90.61;100130.97;5069290;28;20075;-41
2023/05/22 02:27:44;;;;;;;21.70;10.93;;;;;;;11.65;90.91;100160.03;5072348;28;20118;-39
2023/05/22 02:30:11;;;;;;;23.25;11.77;;;;;;;11.35;91.10;100117.56;5070839;28;20032;-39
2023/05/22 02:32:39;;;;;;;23.73;11.30;;;;;;;11.64;91.33;100165.28;5039353;28;20032;-40
2023/05/22 02:35:05;;;;;;;22.88;12.00;;;;;;;11.48;91.13;100139.72;5071628;28;20138;-41
2023/05/22 02:37:32;;;;;;;30.00;12.82;;;;;;;11.64;91.35;100167.88;5089986;28;20036;-38
2023/05/22 02:39:58;;;;;;;30.30;14.00;;;;;;;11.66;90.91;100179.97;5072138;28;20044;-40
2023/05/22 02:42:24;;;;;;;37.20;14.85;;;;;;;11.70;90.58;100178.97;5055247;28;20032;-41
2023/05/22 02:44:51;;;;;;;31.83;14.98;;;;;;;11.63;90.16;100163.56;5071290;28;20070;-41
2023/05/22 02:47:17;;;;;;;33.22;13.88;;;;;;;11.53;89.47;100136.09;5054756;28;20258;-40
2023/05/22 02:49:44;;;;;;;29.00;14.13;;;;;;;11.77;89.22;100175.31;5072178;28;20067;-41
2023/05/22 02:52:10;;;;;;;31.73;14.55;;;;;;;11.87;88.74;100181.09;5090054;28;20502;-39
2023/05/22 02:54:36;;;;;;;28.60;13.60;;;;;;;11.93;88.70;100182.66;5071658;28;20050;-40
2023/05/22 02:57:03;;;;;;;29.90;13.20;;;;;;;11.99;88.20;100188.50;5078415;28;20427;-40
2023/05/22 02:59:29;;;;;;;22.63;12.70;;;;;;;12.07;87.64;100188.25;5071391;28;20046;-40
2023/05/22 03:01:55;;;;;;;32.33;13.27;;;;;;;12.14;87.00;100189.78;5070882;28;20036;-41
2023/05/22 03:04:23;;;;;;;21.77;11.05;;;;;;;12.22;86.14;100188.63;5071675;28;20036;-39
2023/05/22 03:06:49;;;;;;;25.95;11.88;;;;;;;12.32;84.95;100197.84;5071221;28;20505;-40
2023/05/22 03:09:15;;;;;;;26.33;12.27;;;;;;;12.46;83.82;100199.97;5071363;28;20048;-40
2023/05/22 03:11:42;;;;;;;25.08;12.32;;;;;;;12.55;83.20;100201.44;5089346;28;20093;-41
2023/05/22 03:14:08;;;;;;;25.65;11.57;;;;;;;12.50;81.89;100182.47;5089241;28;20067;-40
2023/05/22 03:16:34;;;;;;;21.52;11.00;;;;;;;12.70;81.33;100208.72;5067407;28;20512;-40
2023/05/22 03:19:12;;;;;;;29.60;11.57;;;;;;;12.74;80.29;100194.66;5070408;28;20044;-39
2023/05/22 03:21:39;;;;;;;21.38;10.90;;;;;;;12.81;79.85;100216.19;5071164;28;20127;-40
2023/05/22 03:24:06;;;;;;;24.13;10.57;;;;;;;12.88;78.35;100200.25;5068747;28;20066;-39
2023/05/22 03:26:32;;;;;;;18.45;10.50;;;;;;;12.95;77.67;100196.50;5057570;28;20074;-40
2023/05/22 03:28:59;;;;;;;19.05;10.70;;;;;;;13.05;76.67;100189.19;5032677;28;20052;-41
2023/05/22 03:31:27;;;;;;;18.48;10.02;;;;;;;13.13;75.74;100184.59;5043206;28;20138;-40
2023/05/22 03:34:04;;;;;;;17.08;9.85;;;;;;;13.15;74.83;100165.34;5026085;28;20086;-42
2023/05/22 03:36:35;;;;;;;18.95;10.38;;;;;;;13.35;74.06;100185.47;5058899;28;20132;-40
2023/05/22 03:39:01;;;;;;;;;;;;;;;13.49;73.29;100175.38;5072514;28;20164;-42
2023/05/22 03:41:28;;;;;;;19.23;10.65;;;;;;;13.56;72.92;100183.81;5070867;28;19948;-40
2023/05/22 03:43:54;;;;;;;19.00;10.40;;;;;;;13.61;72.22;100174.03;5086831;28;20040;-41
2023/05/22 03:46:21;;;;;;;19.30;10.63;;;;;;;13.75;71.55;100187.44;5066801;28;20044;-40
2023/05/22 03:48:47;;;;;;;18.83;11.05;;;;;;;13.85;71.07;100183.53;5035747;28;20048;-39
2023/05/22 03:51:13;;;;;;;16.15;10.73;;;;;;;13.91;70.09;100182.44;5070934;28;20040;-40
2023/05/22 03:53:39;;;;;;;16.45;10.02;;;;;;;13.95;70.01;100179.66;5045365;28;20064;-40
2023/05/22 03:56:05;;;;;;;21.42;11.25;;;;;;;14.19;69.36;100184.78;5046855;28;20188;-39
2023/05/22 03:58:31;;;;;;;19.42;11.10;;;;;;;14.33;68.47;100188.56;5029988;28;20044;-42
2023/05/22 04:00:59;;;;;;;24.67;11.73;;;;;;;14.49;67.94;100191.41;5046718;28;20048;-41
2023/05/22 04:03:27;;;;;;;21.13;11.65;;;;;;;14.55;67.33;100183.28;5047149;28;20124;-40
2023/05/22 04:05:53;;;;;;;18.45;11.63;;;;;;;14.57;66.86;100186.69;5047118;28;20043;-39
2023/05/22 04:08:19;;;;;;;21.38;11.88;;;;;;;14.55;66.48;100190.31;5045496;28;20058;-40
2023/05/22 04:10:47;;;;;;;17.50;11.32;;;;;;;14.48;66.60;100191.47;5048161;28;20124;-39
2023/05/22 04:13:14;;;;;;;20.38;12.23;;;;;;;14.50;66.50;100200.13;5047343;28;20037;-39
2023/05/22 04:15:42;;;;;;;23.50;12.32;;;;;;;14.51;66.55;100199.16;5046971;28;20150;-39
2023/05/22 04:18:08;;;;;;;20.63;11.57;;;;;;;14.54;66.45;100199.06;5046951;28;20166;-41
2023/05/22 04:20:34;;;;;;;24.25;12.50;;;;;;;14.54;66.94;100194.69;5046575;28;20500;-41
2023/05/22 04:23:00;;;;;;;23.42;12.98;;;;;;;14.64;66.51;100203.84;5045794;28;20509;-40
2023/05/22 04:25:26;;;;;;;24.85;13.95;;;;;;;14.70;66.52;100198.34;5042084;28;20582;-40
2023/05/22 04:27:52;;;;;;;19.52;13.30;;;;;;;14.80;66.51;100197.03;5046977;28;20048;-41
2023/05/22 04:30:18;;;;;;;22.42;13.63;;;;;;;14.91;66.00;100196.56;5029963;28;20444;-41
2023/05/22 04:32:44;;;;;;;23.98;13.43;;;;;;;15.00;66.20;100201.38;5044942;28;20033;-40
2023/05/22 04:35:11;;;;;;;25.08;14.07;;;;;;;14.95;65.93;100177.19;5048187;28;20040;-39
2023/05/22 04:37:44;;;;;;;21.92;13.70;;;;;;;15.10;65.80;100196.59;5018767;28;20443;-40
2023/05/22 04:40:11;;;;;;;21.33;12.90;;;;;;;15.12;65.92;100200.00;5043013;28;20042;-40
2023/05/22 04:42:39;;;;;;;23.27;14.43;;;;;;;15.08;65.89;100193.19;5043346;28;20426;-41
2023/05/22 04:45:06;;;;;;;20.55;14.25;;;;;;;15.07;65.86;100202.78;5043863;28;20041;-41
2023/05/22 04:47:32;;;;;;;23.50;14.43;;;;;;;15.05;66.14;100209.88;5047179;28;20122;-41
2023/05/22 04:50:03;;;;;;;23.08;14.32;;;;;;;14.99;66.08;100189.22;5046250;28;20036;-40
2023/05/22 04:52:29;;;;;;;22.48;13.80;;;;;;;15.12;66.14;100202.63;5044224;28;20740;-40
2023/05/22 04:54:55;;;;;;;21.25;14.02;;;;;;;15.21;66.19;100207.44;5069886;28;20044;-39
2023/05/22 04:57:24;;;;;;;23.13;14.63;;;;;;;15.28;66.09;100209.69;5052450;28;20583;-41
2023/05/22 04:59:53;;;;;;;21.05;13.50;;;;;;;15.26;66.00;100201.06;5085862;28;20127;-41
2023/05/22 05:02:19;;;;;;;24.73;13.55;;;;;;;15.30;66.10;100207.00;5076450;28;20051;-42
2023/05/22 05:04:47;;;;;;;22.42;13.02;;;;;;;15.25;66.38;100203.75;5094413;28;20264;-40
2023/05/22 05:07:16;;;;;;;22.33;14.05;;;;;;;15.18;66.87;100204.94;5062816;28;20044;-40
2023/05/22 05:09:42;;;;;;;20.87;14.00;;;;;;;15.11;67.12;100198.28;5066661;28;20063;-40
2023/05/22 05:12:08;;;;;;;22.90;14.07;;;;;;;15.07;67.67;100207.22;5069544;28;20367;-40
2023/05/22 05:14:35;;;;;;;21.10;14.70;;;;;;;15.04;68.04;100202.94;5053033;28;20035;-39
2023/05/22 05:17:01;;;;;;;24.85;15.05;;;;;;;15.01;68.76;100210.94;5069164;28;20418;-39
2023/05/22 05:19:27;;;;;;;22.38;15.65;;;;;;;14.96;69.38;100201.59;5066860;28;20044;-41
2023/05/22 05:21:53;;;;;;;21.33;14.20;;;;;;;14.93;69.95;100202.56;5068564;28;20044;-40
2023/05/22 05:24:20;;;;;;;22.08;15.82;;;;;;;14.83;71.19;100198.66;5062510;28;20043;-41
2023/05/22 05:26:47;;;;;;;27.52;16.98;;;;;;;14.77;72.07;100199.75;5067831;28;20052;-40
2023/05/22 05:29:16;;;;;;;;;;;;;;;14.68;73.55;100212.41;5052767;28;20048;-41
2023/05/22 05:31:57;;;;;;;23.20;15.57;;;;;;;14.57;74.37;100215.47;5053489;28;19919;-40
2023/05/22 05:34:42;;;;;;;30.17;17.00;;;;;;;14.51;75.84;100215.72;5075761;28;20039;-41
2023/05/22 05:37:24;;;;;;;32.60;18.25;;;;;;;14.45;77.20;100215.13;5054702;28;20930;-42
2023/05/22 05:39:52;;;;;;;29.70;17.98;;;;;;;14.39;78.76;100219.69;5052931;28;20063;-41
2023/05/22 05:42:19;;;;;;;29.83;19.23;;;;;;;14.36;80.22;100216.34;5053288;28;20044;-42
2023/05/22 05:44:46;;;;;;;29.88;19.17;;;;;;;14.29;81.30;100207.88;5089818;28;20044;-41
2023/05/22 05:47:13;;;;;;;29.35;18.52;;;;;;;14.28;82.59;100211.44;5086851;28;20036;-41
2023/05/22 05:49:40;;;;;;;30.83;19.63;;;;;;;14.25;83.19;100215.91;5071488;28;20063;-39
2023/05/22 05:52:06;;;;;;;33.30;19.45;;;;;;;14.28;84.47;100221.03;5065387;28;20049;-40
2023/05/22 05:54:34;;;;;;;34.28;20.52;;;;;;;14.17;84.80;100210.16;5053938;28;20371;-40
2023/05/22 05:57:05;;;;;;;32.40;20.95;;;;;;;14.24;85.69;100220.28;5033752;28;20480;-41
2023/05/22 05:59:31;;;;;;;29.05;20.92;;;;;;;14.27;86.61;100238.50;5049921;28;20432;-40
2023/05/22 06:02:17;;;;;;;26.25;19.52;;;;;;;14.26;87.60;100241.16;5066231;28;20045;-39
2023/05/22 06:04:47;;;;;;;34.70;21.45;;;;;;;14.23;88.17;100247.38;5017358;28;20043;-40
2023/05/22 06:07:14;;;;;;;39.22;23.10;;;;;;;14.20;88.93;100252.72;5054914;28;20511;-44
2023/05/22 06:09:44;;;;;;;52.00;26.85;;;;;;;14.06;89.81;100228.91;5028076;28;20070;-44
2023/05/22 06:12:16;;;;;;;56.75;27.02;;;;;;;14.19;90.33;100252.78;5048565;28;20053;-41
2023/05/22 06:14:44;;;;;;;49.50;27.20;;;;;;;14.18;91.20;100245.88;5049568;28;20779;-40
2023/05/22 06:17:11;;;;;;;43.03;23.92;;;;;;;14.20;91.69;100244.88;5048558;28;20045;-40
2023/05/22 06:19:39;;;;;;;41.80;23.05;;;;;;;14.21;92.15;100243.97;5052785;28;20067;-40
2023/05/22 06:22:06;;;;;;;39.15;22.40;;;;;;;14.08;92.47;100218.38;5049652;28;20495;-43
2023/05/22 06:24:32;;;;;;;39.67;22.70;;;;;;;14.22;93.02;100236.97;5051626;28;20037;-41
2023/05/22 06:27:04;;;;;;;36.63;23.02;;;;;;;14.12;93.53;100217.34;5032190;28;20543;-34
2023/05/22 06:29:30;;;;;;;34.13;22.10;;;;;;;14.28;94.00;100239.34;5047979;28;20033;-34
2023/05/22 06:31:56;;;;;;;36.30;22.50;;;;;;;14.32;94.52;100240.91;5057868;28;20085;-34
2023/05/22 06:34:23;;;;;;;37.58;22.13;;;;;;;14.35;95.05;100231.16;5057759;28;20099;-35
2023/05/22 06:36:50;;;;;;;43.30;24.33;;;;;;;14.43;95.56;100235.28;5051807;28;20033;-36
2023/05/22 06:39:18;;;;;;;35.83;22.05;;;;;;;14.50;96.07;100237.56;5015540;28;20087;-34
2023/05/22 06:42:03;;;;;;;44.88;27.48;;;;;;;14.52;96.45;100229.66;5058934;28;20048;-35
2023/05/22 06:44:49;;;;;;;30.38;19.45;;;;;;;14.54;97.09;100244.41;5047618;28;20045;-33
2023/05/22 06:47:14;;;;;;;33.85;20.90;;;;;;;14.53;97.83;100257.53;5042268;28;20040;-37
2023/05/22 06:49:41;;;;;;;23.60;15.63;;;;;;;14.52;98.19;100261.91;5051228;28;20043;-34
2023/05/22 06:52:08;;;;;;;26.13;16.10;;;;;;;14.51;98.67;100256.75;5046196;28;20075;-33
2023/05/22 06:54:34;;;;;;;25.15;15.82;;;;;;;14.49;98.71;100235.88;5043373;28;20036;-34
2023/05/22 06:57:02;;;;;;;26.92;16.73;;;;;;;14.50;99.10;100234.94;5032735;28;20048;-33
2023/05/22 06:59:29;;;;;;;27.13;16.77;;;;;;;14.56;99.45;100212.91;5031714;28;20036;-33
2023/05/22 07:02:04;;;;;;;28.40;16.48;;;;;;;14.67;99.90;100188.00;5048275;28;20052;-34
2023/05/22 07:04:57;;;;;;;23.58;15.80;;;;;;;14.85;99.83;100209.91;5030323;28;20044;-36
2023/05/22 07:07:43;;;;;;;22.00;15.23;;;;;;;14.94;99.68;100224.38;5048974;28;20041;-39
2023/05/22 07:10:09;;;;;;;24.95;15.20;;;;;;;15.01;99.92;100239.75;5054432;28;20133;-38
2023/05/22 07:12:36;;;;;;;20.15;13.30;;;;;;;15.03;99.73;100235.28;5045925;28;20049;-38
2023/05/22 07:15:02;;;;;;;21.63;13.98;;;;;;;15.09;100.00;100210.59;5049558;28;20049;-37
2023/05/22 07:17:31;;;;;;;19.85;14.40;;;;;;;15.24;100.00;100218.63;5025083;28;20030;-38
2023/05/22 07:19:57;;;;;;;16.98;11.13;;;;;;;15.24;100.00;100202.06;5030283;28;20053;-36
2023/05/22 07:22:24;;;;;;;17.80;10.75;;;;;;;15.37;100.00;100212.84;5047021;28;20055;-37
2023/05/22 07:24:50;;;;;;;13.63;10.63;;;;;;;15.46;99.82;100209.78;5022631;28;20044;-36
2023/05/22 07:27:18;;;;;;;14.55;10.45;;;;;;;15.61;99.30;100206.50;5043979;28;20045;-36
2023/05/22 07:29:47;;;;;;;14.18;10.48;;;;;;;15.73;99.01;100203.31;5033695;28;20070;-40
2023/05/22 07:32:13;;;;;;;12.40;9.73;;;;;;;15.83;98.18;100204.56;5044958;28;20052;-34
2023/05/22 07:34:41;;;;;;;11.75;9.77;;;;;;;15.72;97.21;100195.50;5046008;28;20041;-35
2023/05/22 07:37:10;;;;;;;13.70;9.63;;;;;;;15.77;96.66;100244.19;5011672;28;20140;-38
2023/05/22 07:39:37;;;;;;;13.55;10.52;;;;;;;15.56;96.41;100259.13;5031765;28;20041;-34
2023/05/22 07:42:05;;;;;;;14.90;10.65;;;;;;;15.31;96.59;100207.88;5052739;28;20105;-34
2023/05/22 07:44:36;;;;;;;13.40;11.20;;;;;;;15.55;96.55;100215.47;5047685;28;20134;-32
2023/05/22 07:47:02;;;;;;;17.10;11.35;;;;;;;15.79;96.25;100215.28;5042412;28;20556;-33
2023/05/22 07:49:29;;;;;;;22.70;13.88;;;;;;;15.98;95.87;100221.34;5044433;28;20220;-34
2023/05/22 07:51:55;;;;;;;16.63;10.65;;;;;;;16.13;95.41;100233.72;5058244;28;20064;-34
2023/05/22 07:54:24;;;;;;;15.30;10.30;;;;;;;16.20;94.76;100227.25;5080229;28;20040;-37
2023/05/22 07:56:51;;;;;;;15.23;11.00;;;;;;;16.25;93.85;100206.03;5076670;28;20121;-34
2023/05/22 07:59:20;;;;;;;14.10;10.32;;;;;;;16.46;93.79;100239.09;5062917;28;20043;-34
2023/05/22 08:01:47;;;;;;;15.38;11.13;;;;;;;16.52;93.55;100215.16;5071569;28;20522;-34
2023/05/22 08:04:13;;;;;;;15.27;10.57;;;;;;;16.71;92.94;100239.59;5088682;28;20077;-32
2023/05/22 08:06:40;;;;;;;14.95;11.40;;;;;;;16.83;92.75;100238.13;5079969;28;20054;-34
2023/05/22 08:09:06;;;;;;;14.90;11.30;;;;;;;16.91;92.71;100214.94;5066943;28;20044;-33
2023/05/22 08:11:33;;;;;;;16.05;11.38;;;;;;;17.22;92.21;100238.66;5072609;28;20491;-33
2023/05/22 08:13:59;;;;;;;11.75;10.48;;;;;;;17.41;91.56;100229.81;5085496;28;20122;-35
2023/05/22 08:16:25;;;;;;;11.55;9.82;;;;;;;17.61;90.51;100240.13;5075653;28;20035;-35
2023/05/22 08:18:51;;;;;;;14.48;10.30;;;;;;;17.65;89.41;100250.41;5076827;28;20040;-35
2023/05/22 08:21:17;;;;;;;11.23;9.77;;;;;;;17.64;88.31;100258.38;5094946;28;20116;-35
2023/05/22 08:23:43;;;;;;;13.48;9.60;;;;;;;17.48;87.06;100257.50;5097802;28;20038;-34
2023/05/22 08:26:09;;;;;;;11.00;9.20;;;;;;;17.50;86.14;100252.97;5070248;28;20426;-34
2023/05/22 08:28:36;;;;;;;13.60;9.02;;;;;;;17.62;85.93;100255.84;5087533;28;20043;-35
2023/05/22 08:31:02;;;;;;;11.00;9.27;;;;;;;17.82;85.26;100254.75;5068849;28;20077;-34
2023/05/22 08:33:28;;;;;;;13.98;9.50;;;;;;;17.99;84.83;100254.69;5096809;28;20063;-34
2023/05/22 08:35:54;;;;;;;14.07;9.63;;;;;;;18.13;84.45;100251.25;5065027;28;20123;-35
2023/05/22 08:38:20;;;;;;;11.60;9.70;;;;;;;18.27;84.19;100266.25;5096012;28;20064;-35
2023/05/22 08:40:48;;;;;;;11.15;8.95;;;;;;;18.45;83.64;100244.16;5077851;28;20719;-34
2023/05/22 08:43:14;;;;;;;12.70;9.05;;;;;;;18.63;82.80;100240.50;5093820;28;20036;-35
2023/05/22 08:45:42;;;;;;;11.60;9.80;;;;;;;18.81;82.16;100244.69;5066298;28;20051;-34
2023/05/22 08:48:12;;;;;;;15.00;10.50;;;;;;;18.96;81.97;100246.38;5079198;28;20047;-35
2023/05/22 08:50:44;;;;;;;14.52;11.57;;;;;;;19.13;80.96;100245.38;5100525;28;20039;-34
2023/05/22 08:53:14;;;;;;;13.50;9.77;;;;;;;19.26;79.66;100227.03;5081527;28;20058;-33
2023/05/22 08:55:39;;;;;;;;;;;;;;;19.37;78.79;100237.75;5086797;28;20066;-33
2023/05/22 08:58:05;;;;;;;12.52;10.23;;;;;;;19.50;78.42;100240.53;5087790;28;20108;-34
2023/05/22 09:00:31;;;;;;;16.17;10.43;;;;;;;19.65;77.23;100219.31;5084143;28;20039;-35
2023/05/22 09:02:58;;;;;;;12.38;10.68;;;;;;;19.93;76.00;100213.13;5084916;28;20081;-35
2023/05/22 09:05:25;;;;;;;12.48;9.90;;;;;;;20.30;74.81;100236.19;5031361;28;20104;-34
2023/05/22 09:07:55;;;;;;;12.77;10.50;;;;;;;20.58;73.70;100229.94;5096037;28;20135;-34
2023/05/22 09:10:21;;;;;;;19.27;12.10;;;;;;;20.99;72.51;100221.84;5085475;28;20411;-34
2023/05/22 09:13:43;;;;;;;15.75;12.25;;;;;;;21.45;70.21;100218.69;5048929;28;20494;-35
2023/05/22 09:16:11;;;;;;;19.50;13.43;;;;;;;21.60;69.21;100182.34;5070299;28;20746;-35
2023/05/22 09:18:37;;;;;;;20.20;14.05;;;;;;;22.06;67.49;100199.25;5089918;28;20051;-34
2023/05/22 09:21:05;;;;;;;14.98;11.80;;;;;;;22.47;66.16;100206.75;5069761;28;20422;-35
2023/05/22 09:23:31;;;;;;;17.90;13.25;;;;;;;22.86;64.97;100218.84;5077793;28;20101;-34
2023/05/22 09:25:58;;;;;;;10.13;7.22;;;;;;;23.33;63.22;100219.63;5084634;28;20072;-35
2023/05/22 09:28:25;;;;;;;8.35;6.53;;;;;;;24.35;60.12;100223.69;5057596;28;20036;-33
2023/05/22 09:30:52;;;;;;;9.90;7.28;;;;;;;25.38;57.09;100227.34;5074357;28;20098;-34
2023/05/22 09:33:18;;;;;;;11.40;6.85;;;;;;;25.85;54.68;100227.66;5085844;28;20044;-35
2023/05/22 09:35:48;;;;;;;8.48;6.13;;;;;;;25.85;54.06;100220.50;5069112;28;20067;-35
2023/05/22 09:38:14;;;;;;;9.95;8.43;;;;;;;26.71;52.19;100224.22;5067148;28;20047;-36
2023/05/22 09:40:41;;;;;;;12.48;8.45;;;;;;;27.17;50.82;100221.59;5068391;28;20074;-34
2023/05/22 09:43:07;;;;;;;10.43;8.95;;;;;;;26.69;50.74;100186.19;5082739;28;20141;-35
2023/05/22 09:45:34;;;;;;;10.45;7.40;;;;;;;26.62;51.05;100217.91;5069078;28;20141;-36
2023/05/22 09:48:01;;;;;;;9.05;7.13;;;;;;;26.56;50.39;100215.81;5090187;28;20044;-35
2023/05/22 09:50:27;;;;;;;8.65;7.05;;;;;;;27.00;49.21;100213.53;5069132;28;20036;-36
2023/05/22 09:52:54;;;;;;;8.57;7.50;;;;;;;26.89;48.61;100190.50;5065442;28;20056;-35
2023/05/22 09:55:23;;;;;;;9.48;7.93;;;;;;;26.82;48.84;100213.38;5070860;28;20051;-36
2023/05/22 09:57:51;;;;;;;8.60;7.10;;;;;;;26.74;48.26;100207.94;5042858;28;20048;-35
2023/05/22 10:00:18;;;;;;;8.75;7.90;;;;;;;26.70;48.23;100199.34;5085654;28;20033;-35
2023/05/22 10:02:49;;;;;;;7.65;6.90;;;;;;;26.74;48.32;100197.25;5078225;28;20052;-37
2023/05/22 10:05:21;;;;;;;8.02;6.05;;;;;;;26.76;48.35;100201.44;5069138;28;20123;-39
2023/05/22 10:07:49;;;;;;;8.45;5.05;;;;;;;26.44;48.29;100198.25;5069169;28;20966;-36
2023/05/22 10:10:20;;;;;;;9.18;5.55;;;;;;;26.12;48.26;100185.16;5096428;28;20040;-35
2023/05/22 10:13:05;;;;;;;6.43;5.82;;;;;;;26.06;48.50;100196.41;5060879;28;20130;-35
2023/05/22 10:15:31;;;;;;;9.90;6.95;;;;;;;26.02;48.79;100192.31;5088918;28;20051;-34
2023/05/22 10:17:58;;;;;;;8.82;6.45;;;;;;;26.31;48.46;100187.06;5051553;28;20035;-33
2023/05/22 10:20:28;;;;;;;8.20;6.13;;;;;;;26.79;47.84;100192.34;5067386;28;20047;-35
2023/05/22 10:22:54;;;;;;;8.18;6.95;;;;;;;27.18;47.10;100187.72;5072499;28;20127;-34
2023/05/22 10:25:21;;;;;;;9.15;5.50;;;;;;;27.04;46.81;100186.38;5099127;28;20035;-34
2023/05/22 10:27:48;;;;;;;7.85;5.15;;;;;;;26.78;46.92;100177.31;5084155;28;20510;-35
2023/05/22 10:30:32;;;;;;;8.40;4.80;;;;;;;26.73;46.78;100192.91;5095090;28;20502;-34
2023/05/22 10:33:28;;;;;;;7.30;4.50;;;;;;;26.66;46.50;100171.28;5049779;28;20138;-35
2023/05/22 10:36:01;;;;;;;6.13;4.18;;;;;;;26.56;46.06;100186.47;5059245;28;20035;-35
2023/05/22 10:38:36;;;;;;;10.02;6.10;;;;;;;25.89;47.11;100189.09;5064323;28;20081;-35
2023/05/22 10:41:03;;;;;;;6.78;4.90;;;;;;;25.09;47.99;100189.91;5096219;28;20031;-35
2023/05/22 10:43:32;;;;;;;5.40;4.60;;;;;;;24.65;48.51;100190.22;5087002;28;20081;-35
2023/05/22 10:46:05;;;;;;;6.55;4.90;;;;;;;24.44;48.95;100190.19;5072379;28;20426;-35
2023/05/22 10:48:38;;;;;;;7.97;5.38;;;;;;;24.19;49.31;100166.63;5102311;28;20047;-35
2023/05/22 10:51:08;;;;;;;8.77;5.80;;;;;;;24.26;49.83;100186.41;5081286;28;20457;-36
2023/05/22 10:53:34;;;;;;;7.00;5.40;;;;;;;24.49;49.88;100188.81;5085147;28;20063;-35
2023/05/22 10:56:12;;;;;;;7.05;4.88;;;;;;;24.58;49.44;100184.56;5080196;28;20047;-35
2023/05/22 10:58:38;;;;;;;6.72;5.53;;;;;;;24.48;49.58;100189.81;5075784;28;20109;-34
2023/05/22 11:01:15;;;;;;;10.60;6.22;;;;;;;24.37;49.66;100189.88;5094992;28;20036;-34
2023/05/22 11:03:57;;;;;;;7.40;6.53;;;;;;;24.37;50.04;100183.69;5099687;28;20589;-34
2023/05/22 11:06:37;;;;;;;9.27;6.05;;;;;;;24.72;49.51;100176.25;5097694;28;20422;-34
2023/05/22 11:09:17;;;;;;;10.88;7.85;;;;;;;25.08;48.89;100177.59;5078525;28;20166;-34
2023/05/22 11:11:43;;;;;;;11.70;5.75;;;;;;;25.61;48.01;100178.22;5088918;28;20044;-33
2023/05/22 11:14:19;;;;;;;5.22;4.63;;;;;;;25.71;47.48;100178.25;5056334;28;20452;-33
2023/05/22 11:16:45;;;;;;;8.40;5.32;;;;;;;25.56;47.83;100175.13;5069416;28;20043;-34
2023/05/22 11:19:13;;;;;;;5.95;5.25;;;;;;;25.79;47.37;100181.09;5097924;28;20040;-43
2023/05/22 11:21:44;;;;;;;6.90;5.28;;;;;;;26.15;46.39;100164.44;5078736;28;20044;-34
2023/05/22 11:24:11;;;;;;;5.95;4.93;;;;;;;26.38;45.88;100150.84;5069642;28;20096;-34